sensor_id;sensor_type;location;lat;lon;timestamp;temperature;humidity
45315;SHT31;31051;51.540;5.852;2023-06-14T00:06:04;14.6;69.3
45315;SHT31;31051;51.540;5.852;2023-06-14T00:19:03;14.2;69.7
45315;SHT31;31051;51.540;5.852;2023-06-14T00:32:03;14.1;69.3
45315;SHT31;31051;51.540;5.852;2023-06-14T00:45:02;13.8;68.8
45315;SHT31;31051;51.540;5.852;2023-06-14T00:58:01;13.7;70.7
45315;SHT31;31051;51.540;5.852;2023-06-14T01:11:01;13.8;70.2
45315;SHT31;31051;51.540;5.852;2023-06-14T01:23:59;13.6;69.8
45315;SHT31;31051;51.540;5.852;2023-06-14T01:36:48;13.4;70.0
45315;SHT31;31051;51.540;5.852;2023-06-14T01:49:48;13.3;70.9
45315;SHT31;31051;51.540;5.852;2023-06-14T02:02:47;13.2;71.4
45315;SHT31;31051;51.540;5.852;2023-06-14T02:15:46;13.2;70.6
45315;SHT31;31051;51.540;5.852;2023-06-14T02:28:46;13.0;71.4
45315;SHT31;31051;51.540;5.852;2023-06-14T02:41:45;12.8;71.4
45315;SHT31;31051;51.540;5.852;2023-06-14T02:54:44;12.6;72.0
45315;SHT31;31051;51.540;5.852;2023-06-14T03:07:44;12.4;73.3
45315;SHT31;31051;51.540;5.852;2023-06-14T03:20:43;12.4;73.3
45315;SHT31;31051;51.540;5.852;2023-06-14T03:33:42;12.3;74.1
45315;SHT31;31051;51.540;5.852;2023-06-14T03:46:42;12.3;74.3
45315;SHT31;31051;51.540;5.852;2023-06-14T03:59:41;12.4;74.8
45315;SHT31;31051;51.540;5.852;2023-06-14T04:12:40;12.8;73.9
45315;SHT31;31051;51.540;5.852;2023-06-14T04:25:40;13.1;73.1
45315;SHT31;31051;51.540;5.852;2023-06-14T04:38:39;13.5;71.9
45315;SHT31;31051;51.540;5.852;2023-06-14T04:51:39;14.1;70.3
45315;SHT31;31051;51.540;5.852;2023-06-14T05:04:38;14.9;67.0
45315;SHT31;31051;51.540;5.852;2023-06-14T05:17:37;15.6;64.7
45315;SHT31;31051;51.540;5.852;2023-06-14T05:30:37;16.2;63.4
45315;SHT31;31051;51.540;5.852;2023-06-14T05:43:36;16.8;59.8
45315;SHT31;31051;51.540;5.852;2023-06-14T05:56:36;17.4;57.7
45315;SHT31;31051;51.540;5.852;2023-06-14T06:09:34;17.9;56.0
45315;SHT31;31051;51.540;5.852;2023-06-14T06:22:23;18.9;54.9
45315;SHT31;31051;51.540;5.852;2023-06-14T06:35:22;20.6;49.5
45315;SHT31;31051;51.540;5.852;2023-06-14T06:48:10;21.9;47.0
45315;SHT31;31051;51.540;5.852;2023-06-14T07:00:58;23.1;44.9
45315;SHT31;31051;51.540;5.852;2023-06-14T07:13:45;23.9;40.9
45315;SHT31;31051;51.540;5.852;2023-06-14T07:26:32;24.6;39.8
45315;SHT31;31051;51.540;5.852;2023-06-14T07:39:20;25.6;37.2
45315;SHT31;31051;51.540;5.852;2023-06-14T07:52:07;26.1;36.7
45315;SHT31;31051;51.540;5.852;2023-06-14T08:04:55;26.1;35.8
45315;SHT31;31051;51.540;5.852;2023-06-14T08:17:42;26.7;34.3
45315;SHT31;31051;51.540;5.852;2023-06-14T08:30:30;26.7;33.8
45315;SHT31;31051;51.540;5.852;2023-06-14T08:43:17;26.9;32.3
45315;SHT31;31051;51.540;5.852;2023-06-14T08:56:04;27.6;31.5
45315;SHT31;31051;51.540;5.852;2023-06-14T09:08:52;26.7;31.2
45315;SHT31;31051;51.540;5.852;2023-06-14T09:21:39;27.7;29.4
45315;SHT31;31051;51.540;5.852;2023-06-14T09:34:27;28.3;27.9
45315;SHT31;31051;51.540;5.852;2023-06-14T09:47:14;27.5;32.0
45315;SHT31;31051;51.540;5.852;2023-06-14T10:00:02;27.5;28.5
45315;SHT31;31051;51.540;5.852;2023-06-14T10:12:49;27.5;33.9
45315;SHT31;31051;51.540;5.852;2023-06-14T10:25:37;27.3;31.4
45315;SHT31;31051;51.540;5.852;2023-06-14T10:38:24;28.0;30.9
45315;SHT31;31051;51.540;5.852;2023-06-14T10:51:12;28.0;30.9
45315;SHT31;31051;51.540;5.852;2023-06-14T11:03:59;27.8;31.9
45315;SHT31;31051;51.540;5.852;2023-06-14T11:16:47;27.5;32.5
45315;SHT31;31051;51.540;5.852;2023-06-14T11:29:34;27.6;32.2
45315;SHT31;31051;51.540;5.852;2023-06-14T11:42:22;27.2;32.8
45315;SHT31;31051;51.540;5.852;2023-06-14T11:55:09;27.7;33.5
45315;SHT31;31051;51.540;5.852;2023-06-14T12:07:57;28.2;31.1
45315;SHT31;31051;51.540;5.852;2023-06-14T12:20:44;27.9;31.3
45315;SHT31;31051;51.540;5.852;2023-06-14T12:33:31;28.6;30.2
45315;SHT31;31051;51.540;5.852;2023-06-14T12:46:19;29.5;29.2
45315;SHT31;31051;51.540;5.852;2023-06-14T12:59:06;29.2;29.0
45315;SHT31;31051;51.540;5.852;2023-06-14T13:11:54;29.4;30.1
45315;SHT31;31051;51.540;5.852;2023-06-14T13:24:41;29.6;28.9
45315;SHT31;31051;51.540;5.852;2023-06-14T13:37:29;29.2;30.2
45315;SHT31;31051;51.540;5.852;2023-06-14T13:50:17;29.2;30.4
45315;SHT31;31051;51.540;5.852;2023-06-14T14:03:04;28.4;32.0
45315;SHT31;31051;51.540;5.852;2023-06-14T14:15:52;27.3;33.4
45315;SHT31;31051;51.540;5.852;2023-06-14T14:28:39;27.5;31.7
45315;SHT31;31051;51.540;5.852;2023-06-14T14:41:27;27.8;31.8
45315;SHT31;31051;51.540;5.852;2023-06-14T14:54:14;28.0;31.3
45315;SHT31;31051;51.540;5.852;2023-06-14T15:07:02;27.4;32.4
45315;SHT31;31051;51.540;5.852;2023-06-14T15:19:49;27.2;32.7
45315;SHT31;31051;51.540;5.852;2023-06-14T15:32:36;27.8;32.1
45315;SHT31;31051;51.540;5.852;2023-06-14T15:45:24;28.0;31.2
45315;SHT31;31051;51.540;5.852;2023-06-14T15:58:11;28.0;31.5
45315;SHT31;31051;51.540;5.852;2023-06-14T16:10:59;27.8;30.6
45315;SHT31;31051;51.540;5.852;2023-06-14T16:23:46;27.8;31.8
45315;SHT31;31051;51.540;5.852;2023-06-14T16:36:34;27.1;33.2
45315;SHT31;31051;51.540;5.852;2023-06-14T16:49:21;26.7;33.9
45315;SHT31;31051;51.540;5.852;2023-06-14T17:02:09;27.2;32.8
45315;SHT31;31051;51.540;5.852;2023-06-14T17:14:56;26.9;33.9
45315;SHT31;31051;51.540;5.852;2023-06-14T17:27:43;26.2;34.0
45315;SHT31;31051;51.540;5.852;2023-06-14T17:40:31;26.0;35.4
45315;SHT31;31051;51.540;5.852;2023-06-14T17:53:18;25.9;35.4
45315;SHT31;31051;51.540;5.852;2023-06-14T18:06:06;26.1;35.1
45315;SHT31;31051;51.540;5.852;2023-06-14T18:18:53;26.1;33.1
45315;SHT31;31051;51.540;5.852;2023-06-14T18:31:41;26.2;36.5
45315;SHT31;31051;51.540;5.852;2023-06-14T18:44:28;25.9;35.9
45315;SHT31;31051;51.540;5.852;2023-06-14T18:57:15;25.3;36.6
45315;SHT31;31051;51.540;5.852;2023-06-14T19:10:03;24.7;37.6
45315;SHT31;31051;51.540;5.852;2023-06-14T19:22:50;23.9;40.5
45315;SHT31;31051;51.540;5.852;2023-06-14T19:35:38;23.0;43.0
45315;SHT31;31051;51.540;5.852;2023-06-14T19:48:26;21.7;46.8
45315;SHT31;31051;51.540;5.852;2023-06-14T20:01:24;20.2;51.3
45315;SHT31;31051;51.540;5.852;2023-06-14T20:14:13;19.0;55.1
45315;SHT31;31051;51.540;5.852;2023-06-14T20:27:02;18.0;60.2
45315;SHT31;31051;51.540;5.852;2023-06-14T20:40:02;17.5;61.7
45315;SHT31;31051;51.540;5.852;2023-06-14T20:53:01;17.2;62.7
45315;SHT31;31051;51.540;5.852;2023-06-14T21:06:00;16.9;61.9
45315;SHT31;31051;51.540;5.852;2023-06-14T21:18:59;16.4;64.1
45315;SHT31;31051;51.540;5.852;2023-06-14T21:31:47;16.3;63.9
45315;SHT31;31051;51.540;5.852;2023-06-14T21:44:36;16.0;65.8
45315;SHT31;31051;51.540;5.852;2023-06-14T21:57:35;15.8;65.3
45315;SHT31;31051;51.540;5.852;2023-06-14T22:10:24;15.5;65.7
45315;SHT31;31051;51.540;5.852;2023-06-14T22:23:24;15.2;66.9
45315;SHT31;31051;51.540;5.852;2023-06-14T22:36:22;15.0;67.7
45315;SHT31;31051;51.540;5.852;2023-06-14T22:49:11;14.8;69.6
45315;SHT31;31051;51.540;5.852;2023-06-14T23:02:11;14.6;70.2
45315;SHT31;31051;51.540;5.852;2023-06-14T23:15:10;14.3;71.4
45315;SHT31;31051;51.540;5.852;2023-06-14T23:28:09;14.1;71.9
45315;SHT31;31051;51.540;5.852;2023-06-14T23:41:09;14.0;73.3
45315;SHT31;31051;51.540;5.852;2023-06-14T23:54:08;14.0;73.8
